createdAt,value
2023-03-16T00:02:16.841Z,12.40
2023-03-16T00:04:47.324Z,13.13
2023-03-16T00:07:15.660Z,13.93
2023-03-16T00:09:42.863Z,14.40
2023-03-16T00:12:17.815Z,13.47
2023-03-16T00:14:47.107Z,14.00
2023-03-16T00:17:21.683Z,16.23
2023-03-16T00:19:55.367Z,13.03
2023-03-16T00:22:27.265Z,10.67
2023-03-16T00:24:54.161Z,13.63
2023-03-16T00:27:23.184Z,17.87
2023-03-16T00:29:55.720Z,13.27
2023-03-16T00:32:34.305Z,13.93
2023-03-16T00:35:02.419Z,12.73
2023-03-16T00:37:29.773Z,13.43
2023-03-16T00:39:57.747Z,11.27
2023-03-16T00:42:30.466Z,12.67
2023-03-16T00:44:58.792Z,15.77
2023-03-16T00:47:28.490Z,15.10
2023-03-16T00:49:58.715Z,13.67
2023-03-16T00:52:27.557Z,14.30
2023-03-16T00:54:55.700Z,13.80
2023-03-16T00:57:25.188Z,12.83
2023-03-16T00:59:52.513Z,13.23
2023-03-16T01:02:23.413Z,13.93
2023-03-16T01:04:51.782Z,13.70
2023-03-16T01:07:18.894Z,15.50
2023-03-16T01:09:46.110Z,16.10
2023-03-16T01:12:17.336Z,15.93
2023-03-16T01:14:45.940Z,13.80
2023-03-16T01:17:14.874Z,15.80
2023-03-16T01:19:42.768Z,15.73
2023-03-16T01:22:10.271Z,13.07
2023-03-16T01:24:37.496Z,15.50
2023-03-16T01:27:04.894Z,14.00
2023-03-16T01:29:33.009Z,13.93
2023-03-16T01:32:00.641Z,16.70
2023-03-16T01:34:27.544Z,14.67
2023-03-16T01:36:54.760Z,15.33
2023-03-16T01:39:21.482Z,15.10
2023-03-16T01:41:48.408Z,16.67
2023-03-16T01:44:32.624Z,12.63
2023-03-16T01:46:59.396Z,15.80
2023-03-16T01:49:30.211Z,14.90
2023-03-16T01:52:10.087Z,15.53
2023-03-16T01:54:39.807Z,12.93
2023-03-16T01:57:10.710Z,12.33
2023-03-16T02:00:18.925Z,14.97
2023-03-16T02:02:50.245Z,15.80
2023-03-16T02:05:23.162Z,14.00
2023-03-16T02:07:58.562Z,16.00
2023-03-16T02:10:28.130Z,16.10
2023-03-16T02:12:55.748Z,15.70
2023-03-16T02:15:22.951Z,14.23
2023-03-16T02:17:50.930Z,14.57
2023-03-16T02:20:26.910Z,14.77
2023-03-16T02:22:54.921Z,15.43
2023-03-16T02:33:05.016Z,14.37
2023-03-16T02:35:32.506Z,14.13
2023-03-16T02:37:59.839Z,14.57
2023-03-16T02:40:30.544Z,15.97
2023-03-16T02:43:14.649Z,14.47
2023-03-16T02:45:54.200Z,15.23
2023-03-16T02:48:32.258Z,15.90
2023-03-16T02:50:59.116Z,17.00
2023-03-16T02:53:25.906Z,12.80
2023-03-16T02:55:52.772Z,18.23
2023-03-16T02:58:20.130Z,15.00
2023-03-16T03:00:46.882Z,15.80
2023-03-16T03:03:14.244Z,13.70
2023-03-16T03:05:41.129Z,15.73
2023-03-16T03:08:08.190Z,18.07
2023-03-16T03:10:34.948Z,17.03
2023-03-16T03:13:01.714Z,15.43
2023-03-16T03:22:11.493Z,20.40
2023-03-16T03:25:29.848Z,16.80
2023-03-16T03:27:56.641Z,17.20
2023-03-16T03:30:25.154Z,19.40
2023-03-16T03:32:55.265Z,15.47
2023-03-16T03:35:22.380Z,16.10
2023-03-16T03:37:49.507Z,15.97
2023-03-16T03:40:18.272Z,13.70
2023-03-16T03:42:45.010Z,15.73
2023-03-16T03:45:13.461Z,14.70
2023-03-16T03:47:41.588Z,22.17
2023-03-16T03:50:10.305Z,16.87
2023-03-16T03:52:37.125Z,15.27
2023-03-16T03:55:04.273Z,17.80
2023-03-16T03:57:31.009Z,17.57
2023-03-16T03:59:57.784Z,16.73
2023-03-16T04:02:24.630Z,17.23
2023-03-16T04:04:51.830Z,15.80
2023-03-16T04:07:18.609Z,17.37
2023-03-16T04:09:45.466Z,17.30
2023-03-16T04:12:12.372Z,19.97
2023-03-16T04:14:39.103Z,18.33
2023-03-16T04:17:05.945Z,17.93
2023-03-16T04:19:32.953Z,17.60
2023-03-16T04:21:59.735Z,33.17
2023-03-16T04:24:26.583Z,20.40
2023-03-16T04:26:54.468Z,18.63
2023-03-16T04:29:21.299Z,17.77
2023-03-16T04:31:48.071Z,18.50
2023-03-16T04:34:14.910Z,20.47
2023-03-16T04:36:42.204Z,16.43
2023-03-16T04:39:10.334Z,17.27
2023-03-16T04:41:40.492Z,16.23
2023-03-16T04:44:07.292Z,20.37
2023-03-16T04:46:35.870Z,20.10
2023-03-16T04:49:02.994Z,17.10
2023-03-16T04:51:30.309Z,16.83
2023-03-16T04:53:57.245Z,18.80
2023-03-16T04:56:23.968Z,22.63
2023-03-16T04:58:51.056Z,20.10
2023-03-16T05:01:20.245Z,18.67
2023-03-16T05:03:47.037Z,21.17
2023-03-16T05:06:13.786Z,24.87
2023-03-16T05:08:40.789Z,19.50
2023-03-16T05:11:10.516Z,21.53
2023-03-16T05:13:37.318Z,33.73
2023-03-16T05:16:04.264Z,37.03
2023-03-16T05:18:33.220Z,38.70
2023-03-16T05:21:02.784Z,40.10
2023-03-16T05:23:29.490Z,39.13
2023-03-16T05:25:59.832Z,76.83
2023-03-16T05:28:26.768Z,92.00
2023-03-16T05:30:53.768Z,83.63
2023-03-16T05:33:21.644Z,63.73
2023-03-16T05:35:48.509Z,65.43
2023-03-16T05:38:15.912Z,66.80
2023-03-16T05:40:42.735Z,62.63
2023-03-16T05:43:09.543Z,60.07
2023-03-16T05:45:36.297Z,49.03
2023-03-16T05:48:05.845Z,44.53
2023-03-16T05:50:35.060Z,40.77
2023-03-16T05:53:01.801Z,42.10
2023-03-16T05:55:28.618Z,57.30
2023-03-16T05:57:55.454Z,71.87
2023-03-16T06:00:22.914Z,61.77
2023-03-16T06:02:53.810Z,52.10
2023-03-16T06:05:25.221Z,57.23
2023-03-16T06:07:52.716Z,53.80
2023-03-16T06:10:20.056Z,76.53
2023-03-16T06:12:47.016Z,109.90
2023-03-16T06:15:13.831Z,175.17
2023-03-16T06:17:41.452Z,74.63
2023-03-16T06:20:11.435Z,79.27
2023-03-16T06:22:42.525Z,73.70
2023-03-16T06:25:11.033Z,58.53
2023-03-16T06:27:38.585Z,39.13
2023-03-16T06:30:07.088Z,32.77
2023-03-16T06:32:36.892Z,28.27
2023-03-16T06:35:06.492Z,29.27
2023-03-16T06:37:34.263Z,31.37
2023-03-16T06:40:01.302Z,30.43
2023-03-16T06:42:28.089Z,32.63
2023-03-16T06:44:55.024Z,28.47
2023-03-16T06:47:21.933Z,26.83
2023-03-16T06:49:50.122Z,28.63
2023-03-16T06:52:16.986Z,27.07
2023-03-16T06:54:43.759Z,26.63
2023-03-16T06:57:14.274Z,27.87
2023-03-16T06:59:41.271Z,38.40
2023-03-16T07:02:09.596Z,34.73
2023-03-16T07:04:36.444Z,33.40
2023-03-16T07:07:03.432Z,30.10
2023-03-16T07:09:30.279Z,25.50
2023-03-16T07:11:57.072Z,23.57
2023-03-16T07:14:26.145Z,22.90
2023-03-16T07:16:53.112Z,24.90
2023-03-16T07:19:20.356Z,17.97
2023-03-16T07:21:47.091Z,24.50
2023-03-16T07:24:14.039Z,18.40
2023-03-16T07:26:41.381Z,16.63
2023-03-16T07:29:09.685Z,16.77
2023-03-16T07:31:36.508Z,16.10
2023-03-16T07:34:04.572Z,20.07
2023-03-16T07:36:31.856Z,20.23
2023-03-16T07:38:58.765Z,23.27
2023-03-16T07:41:25.872Z,19.80
2023-03-16T07:43:53.451Z,20.20
2023-03-16T07:46:20.432Z,26.13
2023-03-16T07:48:47.401Z,23.93
2023-03-16T07:51:14.628Z,28.90
2023-03-16T07:53:41.866Z,26.10
2023-03-16T07:56:09.181Z,27.57
2023-03-16T07:58:38.220Z,27.67
2023-03-16T08:01:05.156Z,29.63
2023-03-16T08:03:32.279Z,21.43
2023-03-16T08:05:59.636Z,24.20
2023-03-16T08:08:26.474Z,19.90
2023-03-16T08:10:55.573Z,24.53
2023-03-16T08:13:23.570Z,21.33
2023-03-16T08:16:02.326Z,24.80
2023-03-16T08:18:30.324Z,22.40
2023-03-16T08:20:57.999Z,26.00
2023-03-16T08:23:25.925Z,23.20
2023-03-16T08:25:59.406Z,22.03
2023-03-16T08:28:26.251Z,21.93
2023-03-16T08:30:54.167Z,19.67
2023-03-16T08:33:23.274Z,18.07
2023-03-16T08:35:50.892Z,19.57
2023-03-16T08:38:19.178Z,16.70
2023-03-16T08:40:49.066Z,18.43
2023-03-16T08:43:17.295Z,23.00
2023-03-16T08:45:48.540Z,17.87
2023-03-16T08:48:15.903Z,16.90
2023-03-16T08:50:44.234Z,20.63
2023-03-16T08:53:12.093Z,20.73
2023-03-16T08:55:40.352Z,15.70
2023-03-16T08:58:07.981Z,18.00
2023-03-16T09:00:35.272Z,16.00
2023-03-16T09:03:02.865Z,15.80
2023-03-16T09:05:30.711Z,17.53
2023-03-16T09:07:57.736Z,16.23
2023-03-16T09:10:25.454Z,12.90
2023-03-16T09:12:53.290Z,13.00
2023-03-16T09:15:21.517Z,12.40
2023-03-16T09:17:48.215Z,13.60
2023-03-16T09:20:33.248Z,12.30
2023-03-16T09:23:00.192Z,12.20
2023-03-16T09:25:26.997Z,14.70
2023-03-16T09:27:53.856Z,14.47
2023-03-16T09:30:20.707Z,15.60
2023-03-16T09:32:48.900Z,13.17
2023-03-16T09:35:16.079Z,12.73
2023-03-16T09:38:04.348Z,11.90
2023-03-16T09:40:30.963Z,12.03
2023-03-16T09:43:07.197Z,12.63
2023-03-16T09:46:07.305Z,15.10
2023-03-16T09:48:37.053Z,13.77
2023-03-16T09:51:07.748Z,12.50
2023-03-16T09:53:38.138Z,11.93
2023-03-16T09:57:01.412Z,12.33
2023-03-16T10:00:24.385Z,12.07
2023-03-16T10:03:47.518Z,12.13
2023-03-16T10:06:14.913Z,10.73
2023-03-16T10:08:52.117Z,9.37
2023-03-16T10:11:22.320Z,10.30
2023-03-16T10:14:23.021Z,10.37
2023-03-16T10:17:24.080Z,10.43
2023-03-16T10:19:58.089Z,8.90
2023-03-16T10:22:27.922Z,9.80
2023-03-16T10:25:00.414Z,8.93
2023-03-16T10:27:31.420Z,8.50
2023-03-16T10:29:58.922Z,9.40
2023-03-16T10:32:29.497Z,10.30
2023-03-16T10:35:06.208Z,9.90
2023-03-16T10:37:33.639Z,8.67
2023-03-16T10:40:00.827Z,9.20
2023-03-16T10:42:27.995Z,9.93
2023-03-16T10:45:02.987Z,10.80
2023-03-16T10:47:34.112Z,10.80
2023-03-16T10:50:14.249Z,9.93
2023-03-16T10:52:45.168Z,10.23
2023-03-16T10:55:24.739Z,9.93
2023-03-16T10:57:55.069Z,9.67
2023-03-16T11:00:26.028Z,10.07
2023-03-16T11:02:55.166Z,9.47
2023-03-16T11:05:32.372Z,10.53
2023-03-16T11:08:20.127Z,9.77
2023-03-16T11:10:56.276Z,9.83
2023-03-16T11:13:26.151Z,10.07
2023-03-16T11:16:24.086Z,9.57
2023-03-16T11:19:31.121Z,9.03
2023-03-16T11:22:17.580Z,8.80
2023-03-16T11:24:54.225Z,9.43
2023-03-16T11:27:59.451Z,7.97
2023-03-16T11:30:35.258Z,10.40
2023-03-16T11:33:02.249Z,8.83
2023-03-16T11:35:31.329Z,8.53
2023-03-16T11:38:20.644Z,12.03
2023-03-16T11:41:10.418Z,10.03
2023-03-16T11:43:37.992Z,8.37
2023-03-16T11:46:44.482Z,8.20
2023-03-16T11:49:26.291Z,8.27
2023-03-16T11:52:32.382Z,8.10
2023-03-16T11:55:19.574Z,8.17
2023-03-16T11:58:08.257Z,7.07
2023-03-16T12:00:41.684Z,8.20
2023-03-16T12:03:26.364Z,7.27
2023-03-16T12:06:23.422Z,8.50
2023-03-16T12:09:12.468Z,11.00
2023-03-16T12:12:23.148Z,11.10
2023-03-16T12:15:09.275Z,9.07
2023-03-16T12:17:40.813Z,16.20
2023-03-16T12:20:17.125Z,7.73
2023-03-16T12:22:52.190Z,6.80
2023-03-16T12:25:23.991Z,6.20
2023-03-16T12:27:56.088Z,6.20
2023-03-16T12:30:41.172Z,7.37
2023-03-16T12:33:32.084Z,6.47
2023-03-16T12:36:30.561Z,6.73
2023-03-16T12:39:06.287Z,9.07
2023-03-16T12:42:10.448Z,6.17
2023-03-16T12:44:56.849Z,7.30
2023-03-16T12:47:52.341Z,6.17
2023-03-16T12:50:21.393Z,7.23
2023-03-16T12:52:50.770Z,7.67
2023-03-16T12:55:28.034Z,6.63
2023-03-16T12:58:16.890Z,6.63
2023-03-16T13:00:44.255Z,6.57
2023-03-16T13:03:17.164Z,6.33
2023-03-16T13:05:51.843Z,5.70
2023-03-16T13:08:21.097Z,7.07
2023-03-16T13:11:14.738Z,6.53
2023-03-16T13:14:00.562Z,6.33
2023-03-16T13:16:38.701Z,7.00
2023-03-16T13:19:38.582Z,8.07
2023-03-16T13:22:27.367Z,6.77
2023-03-16T13:25:15.540Z,9.07
2023-03-16T13:27:47.774Z,7.40
2023-03-16T13:30:32.031Z,8.40
2023-03-16T13:33:20.764Z,6.60
2023-03-16T13:35:51.217Z,8.03
2023-03-16T13:38:20.669Z,7.43
2023-03-16T13:40:50.089Z,7.03
2023-03-16T13:43:19.811Z,7.13
2023-03-16T13:45:47.036Z,7.83
2023-03-16T13:48:14.943Z,7.73
2023-03-16T13:50:43.194Z,9.07
2023-03-16T13:53:28.977Z,6.50
2023-03-16T13:55:57.423Z,8.03
2023-03-16T13:58:29.467Z,7.27
2023-03-16T14:01:01.760Z,7.60
2023-03-16T14:03:36.015Z,7.20
2023-03-16T14:06:04.638Z,6.73
2023-03-16T14:08:32.448Z,6.03
2023-03-16T14:11:01.321Z,5.87
2023-03-16T14:13:29.024Z,8.03
2023-03-16T14:15:59.125Z,6.10
2023-03-16T14:19:03.134Z,6.13
2023-03-16T14:21:34.149Z,6.00
2023-03-16T14:24:07.033Z,6.27
2023-03-16T14:26:46.051Z,6.87
2023-03-16T14:29:30.315Z,7.10
2023-03-16T14:31:58.883Z,6.10
2023-03-16T14:34:36.591Z,10.37
2023-03-16T14:37:13.865Z,6.20
2023-03-16T14:39:41.682Z,6.40
2023-03-16T14:42:18.844Z,5.47
2023-03-16T14:44:46.360Z,5.83
2023-03-16T14:47:22.596Z,6.50
2023-03-16T14:49:49.514Z,5.90
2023-03-16T14:52:27.227Z,4.73
2023-03-16T14:54:55.312Z,6.97
2023-03-16T14:57:22.337Z,7.40
2023-03-16T14:59:49.111Z,6.30
2023-03-16T15:02:27.022Z,6.03
2023-03-16T15:04:55.553Z,5.63
2023-03-16T15:07:26.315Z,5.17
2023-03-16T15:09:55.176Z,5.53
2023-03-16T15:12:25.461Z,6.07
2023-03-16T15:15:11.537Z,5.40
2023-03-16T15:17:38.887Z,5.57
2023-03-16T15:20:07.177Z,6.43
2023-03-16T15:22:37.173Z,5.83
2023-03-16T15:25:30.517Z,5.50
2023-03-16T15:27:57.595Z,6.33
2023-03-16T15:30:27.348Z,12.43
2023-03-16T15:32:54.474Z,5.67
2023-03-16T15:35:21.762Z,5.97
2023-03-16T15:37:49.347Z,5.97
2023-03-16T15:40:19.243Z,5.20
2023-03-16T15:42:47.002Z,5.13
2023-03-16T15:45:17.638Z,5.00
2023-03-16T15:47:45.055Z,5.00
2023-03-16T15:50:15.608Z,5.13
2023-03-16T15:52:47.072Z,5.97
2023-03-16T15:55:28.052Z,5.93
2023-03-16T15:57:59.544Z,6.23
2023-03-16T16:00:37.952Z,5.67
2023-03-16T16:03:06.501Z,5.90
2023-03-16T16:05:33.726Z,5.63
2023-03-16T16:08:00.748Z,5.93
2023-03-16T16:10:28.839Z,5.80
2023-03-16T16:12:57.036Z,6.60
2023-03-16T16:15:33.773Z,7.83
2023-03-16T16:18:20.354Z,6.47
2023-03-16T16:20:48.414Z,7.27
2023-03-16T16:23:15.224Z,6.47
2023-03-16T16:25:42.421Z,7.10
2023-03-16T16:28:27.557Z,8.07
2023-03-16T16:30:54.582Z,6.13
2023-03-16T16:33:35.663Z,6.53
2023-03-16T16:36:08.310Z,6.37
2023-03-16T16:38:35.540Z,6.53
2023-03-16T16:41:07.016Z,5.23
2023-03-16T16:43:44.236Z,8.37
2023-03-16T16:46:23.472Z,6.13
2023-03-16T16:48:54.593Z,6.17
2023-03-16T16:51:28.058Z,7.13
2023-03-16T16:53:57.447Z,8.47
2023-03-16T16:56:31.187Z,5.60
2023-03-16T16:59:06.956Z,8.13
2023-03-16T17:01:35.120Z,5.80
2023-03-16T17:04:02.763Z,5.73
2023-03-16T17:06:30.012Z,6.20
2023-03-16T17:08:56.836Z,8.63
2023-03-16T17:11:29.776Z,8.57
2023-03-16T17:14:02.244Z,7.93
2023-03-16T17:16:35.026Z,6.40
2023-03-16T17:19:02.395Z,8.70
2023-03-16T17:21:31.266Z,9.90
2023-03-16T17:24:00.304Z,9.20
2023-03-16T17:26:34.340Z,6.97
2023-03-16T17:29:06.292Z,6.57
2023-03-16T17:31:38.985Z,6.93
2023-03-16T17:34:23.296Z,6.53
2023-03-16T17:36:50.279Z,9.60
2023-03-16T17:39:20.895Z,10.63
2023-03-16T17:41:57.196Z,9.67
2023-03-16T17:44:25.626Z,11.63
2023-03-16T17:46:53.053Z,8.80
2023-03-16T17:49:20.624Z,9.97
2023-03-16T17:51:47.904Z,9.77
2023-03-16T17:54:14.854Z,9.03
2023-03-16T17:56:41.730Z,8.60
2023-03-16T17:59:19.395Z,6.97
2023-03-16T18:01:47.355Z,8.40
2023-03-16T18:04:23.281Z,12.43
2023-03-16T18:06:51.261Z,8.13
2023-03-16T18:09:19.652Z,8.70
2023-03-16T18:11:49.030Z,8.27
2023-03-16T18:14:39.824Z,9.17
2023-03-16T18:17:21.739Z,10.23
2023-03-16T18:19:49.760Z,7.97
2023-03-16T18:22:21.936Z,8.93
2023-03-16T18:24:50.068Z,13.70
2023-03-16T18:27:17.133Z,12.87
2023-03-16T18:29:45.615Z,11.23
2023-03-16T18:32:27.218Z,11.33
2023-03-16T18:34:54.754Z,21.77
2023-03-16T18:37:27.444Z,14.37
2023-03-16T18:39:54.972Z,8.70
2023-03-16T18:42:24.043Z,11.87
2023-03-16T18:44:51.190Z,10.07
2023-03-16T18:47:24.632Z,12.63
2023-03-16T18:49:54.076Z,10.63
2023-03-16T18:52:29.194Z,10.83
2023-03-16T18:54:57.751Z,9.40
2023-03-16T18:57:28.112Z,9.13
2023-03-16T18:59:55.413Z,9.70
2023-03-16T19:02:39.120Z,11.27
2023-03-16T19:05:13.993Z,10.57
2023-03-16T19:07:43.199Z,8.00
2023-03-16T19:10:19.107Z,9.50
2023-03-16T19:12:45.953Z,10.23
2023-03-16T19:15:28.407Z,8.37
2023-03-16T19:17:57.982Z,8.80
2023-03-16T19:20:32.023Z,9.20
2023-03-16T19:23:06.402Z,8.00
2023-03-16T19:25:41.434Z,8.77
2023-03-16T19:28:23.692Z,9.03
2023-03-16T19:30:50.580Z,10.63
2023-03-16T19:33:23.468Z,8.80
2023-03-16T19:35:52.178Z,9.10
2023-03-16T19:38:24.029Z,11.07
2023-03-16T19:40:57.644Z,9.50
2023-03-16T19:43:26.104Z,8.40
2023-03-16T19:45:54.681Z,8.50
2023-03-16T19:48:36.472Z,8.57
2023-03-16T19:51:04.368Z,10.30
2023-03-16T19:53:31.203Z,7.70
2023-03-16T19:55:58.169Z,10.67
2023-03-16T19:58:40.461Z,7.33
2023-03-16T20:01:17.511Z,8.10
2023-03-16T20:03:45.666Z,6.93
2023-03-16T20:06:14.848Z,10.30
2023-03-16T20:08:42.236Z,6.90
2023-03-16T20:11:21.470Z,6.87
2023-03-16T20:13:48.721Z,7.43
2023-03-16T20:16:21.678Z,8.57
2023-03-16T20:18:52.551Z,9.00
2023-03-16T20:21:19.831Z,7.23
2023-03-16T20:23:47.010Z,6.10
2023-03-16T20:26:32.011Z,6.03
2023-03-16T20:29:01.716Z,6.33
2023-03-16T20:31:34.190Z,8.17
2023-03-16T20:34:01.039Z,6.83
2023-03-16T20:36:27.865Z,5.53
2023-03-16T20:38:54.650Z,6.63
2023-03-16T20:41:28.588Z,8.83
2023-03-16T20:43:58.505Z,6.47
2023-03-16T20:46:31.379Z,7.37
2023-03-16T20:49:00.690Z,6.50
2023-03-16T20:51:28.678Z,7.97
2023-03-16T20:53:55.462Z,5.33
2023-03-16T20:56:25.836Z,5.73
2023-03-16T20:58:55.976Z,7.73
2023-03-16T21:01:24.623Z,6.57
2023-03-16T21:03:55.437Z,5.97
2023-03-16T21:06:25.901Z,5.40
2023-03-16T21:08:53.689Z,6.90
2023-03-16T21:11:34.144Z,6.37
2023-03-16T21:14:01.175Z,4.20
2023-03-16T21:16:29.000Z,4.60
2023-03-16T21:18:56.060Z,4.47
2023-03-16T21:21:23.290Z,5.77
2023-03-16T21:23:50.510Z,6.00
2023-03-16T21:26:20.789Z,4.93
2023-03-16T21:28:56.578Z,6.00
2023-03-16T21:31:24.612Z,4.97
2023-03-16T21:33:53.895Z,4.43
2023-03-16T21:36:23.634Z,6.07
2023-03-16T21:38:51.603Z,4.23
2023-03-16T21:41:18.505Z,5.33
2023-03-16T21:43:46.950Z,6.50
2023-03-16T21:46:18.844Z,3.97
2023-03-16T21:48:49.648Z,4.70
2023-03-16T21:51:18.770Z,3.77
2023-03-16T21:53:46.636Z,4.90
2023-03-16T21:56:15.723Z,4.47
2023-03-16T21:58:44.071Z,4.23
2023-03-16T22:01:26.257Z,5.13
2023-03-16T22:03:55.103Z,4.17
2023-03-16T22:06:23.833Z,4.13
2023-03-16T22:08:51.382Z,5.10
2023-03-16T22:11:24.124Z,5.27
2023-03-16T22:13:52.050Z,4.10
2023-03-16T22:16:21.751Z,3.80
2023-03-16T22:18:50.913Z,4.50
2023-03-16T22:21:34.521Z,3.63
2023-03-16T22:24:05.266Z,4.30
2023-03-16T22:26:32.435Z,5.77
2023-03-16T22:29:02.316Z,5.67
2023-03-16T22:31:35.181Z,5.37
2023-03-16T22:34:03.420Z,5.23
2023-03-16T22:36:32.846Z,22.10
2023-03-16T22:39:06.121Z,7.17
2023-03-16T22:41:33.147Z,5.30
2023-03-16T22:44:00.171Z,9.10
2023-03-16T22:46:28.641Z,8.10
2023-03-16T22:48:56.847Z,7.53
2023-03-16T22:51:27.683Z,5.40
2023-03-16T22:53:59.966Z,5.20
2023-03-16T22:56:28.256Z,5.30
2023-03-16T22:59:07.636Z,7.37
2023-03-16T23:01:39.383Z,4.70
2023-03-16T23:04:14.865Z,5.37
2023-03-16T23:06:41.965Z,7.47
2023-03-16T23:09:12.699Z,5.30
2023-03-16T23:11:39.821Z,5.80
2023-03-16T23:14:18.064Z,19.40
2023-03-16T23:16:45.783Z,7.43
2023-03-16T23:19:31.914Z,8.83
2023-03-16T23:22:04.963Z,5.07
2023-03-16T23:24:33.148Z,9.80
2023-03-16T23:27:00.654Z,5.67
2023-03-16T23:29:28.312Z,10.23
2023-03-16T23:31:55.176Z,6.83
2023-03-16T23:34:24.005Z,5.97
2023-03-16T23:36:51.661Z,6.40
2023-03-16T23:39:19.057Z,7.27
2023-03-16T23:41:47.933Z,5.87
2023-03-16T23:44:21.962Z,7.70
2023-03-16T23:46:49.153Z,8.53
2023-03-16T23:49:28.020Z,4.97
2023-03-16T23:51:57.607Z,8.30
2023-03-16T23:54:27.820Z,6.73
2023-03-16T23:56:54.804Z,8.77
2023-03-16T23:59:23.328Z,7.67
